Time;durP1;ratioP1;P1;durP2;ratioP2;P2;SDS_P1;SDS_P2;PMS_P1;PMS_P2;Temp;Humidity;BMP_temperature;BMP_pressure;BME280_temperature;BME280_humidity;BME280_pressure;Samples;Min_cycle;Max_cycle;Signal;HPM_P1;HPM_P2
2021/09/14 00:01:08;;;;;;;6.10;4.65;;;19.00;99.90;;;;;;5090749;28;20032;-61
2021/09/14 00:03:33;;;;;;;5.50;4.28;;;19.00;99.90;;;;;;5090364;28;20085;-62
2021/09/14 00:05:59;;;;;;;10.00;3.83;;;19.00;99.90;;;;;;5073819;28;20039;-62
2021/09/14 00:08:25;;;;;;;7.88;4.43;;;19.00;99.90;;;;;;5090157;28;20071;-64
2021/09/14 00:10:51;;;;;;;6.78;4.47;;;18.90;99.90;;;;;;5090924;28;20062;-61
2021/09/14 00:13:18;;;;;;;7.45;4.45;;;18.80;99.90;;;;;;5090415;28;20563;-74
2021/09/14 00:15:43;;;;;;;7.07;4.43;;;18.80;99.90;;;;;;5090845;28;20092;-61
2021/09/14 00:18:09;;;;;;;4.50;4.10;;;18.80;99.90;;;;;;5090780;28;20032;-61
2021/09/14 00:20:35;;;;;;;6.68;4.20;;;18.80;99.90;;;;;;5073264;28;20024;-62
2021/09/14 00:23:02;;;;;;;5.38;4.57;;;18.70;99.90;;;;;;5090554;28;20032;-61
2021/09/14 00:25:28;;;;;;;7.85;4.43;;;18.70;99.90;;;;;;5082330;28;20049;-62
2021/09/14 00:27:54;;;;;;;5.90;5.05;;;18.80;99.90;;;;;;5056523;28;20148;-61
2021/09/14 00:30:19;;;;;;;8.90;4.25;;;18.80;99.90;;;;;;5034290;28;20056;-61
2021/09/14 00:32:45;;;;;;;5.90;4.35;;;18.70;99.90;;;;;;5051447;28;20116;-61
2021/09/14 00:35:11;;;;;;;6.50;4.50;;;18.60;99.90;;;;;;5052649;28;20386;-62
2021/09/14 00:37:36;;;;;;;9.68;5.50;;;18.70;99.90;;;;;;5052032;28;20032;-62
2021/09/14 00:40:04;;;;;;;8.52;4.85;;;18.60;99.90;;;;;;5051085;28;20505;-61
2021/09/14 00:42:31;;;;;;;5.28;4.78;;;18.50;99.90;;;;;;5051868;28;20029;-61
2021/09/14 00:44:56;;;;;;;4.95;4.43;;;18.50;99.90;;;;;;5052596;28;20029;-61
2021/09/14 00:47:22;;;;;;;7.28;4.80;;;18.50;99.90;;;;;;5051889;28;20082;-61
2021/09/14 00:49:48;;;;;;;6.90;4.20;;;18.40;99.90;;;;;;5051107;28;20420;-61
2021/09/14 00:52:13;;;;;;;6.05;4.20;;;18.40;99.90;;;;;;5050771;28;20401;-61
2021/09/14 00:54:41;;;;;;;5.70;5.15;;;18.50;99.90;;;;;;5050157;28;20271;-61
2021/09/14 00:57:07;;;;;;;6.63;5.30;;;18.40;99.90;;;;;;5052023;28;20094;-61
2021/09/14 00:59:33;;;;;;;8.60;5.15;;;18.40;99.90;;;;;;5051292;28;20439;-60
2021/09/14 01:01:59;;;;;;;8.63;6.65;;;18.40;99.90;;;;;;5052027;28;20025;-62
2021/09/14 01:04:24;;;;;;;5.95;4.78;;;18.40;99.90;;;;;;5051297;28;20032;-63
2021/09/14 01:06:50;;;;;;;5.38;4.88;;;18.30;99.90;;;;;;5050998;28;20134;-62
2021/09/14 01:09:17;;;;;;;4.70;4.20;;;18.30;99.90;;;;;;5051809;28;20335;-62
2021/09/14 01:11:43;;;;;;;6.53;5.43;;;18.30;99.90;;;;;;5050177;28;20167;-61
2021/09/14 01:14:09;;;;;;;6.93;4.95;;;18.30;99.90;;;;;;5050252;28;20108;-62
2021/09/14 01:16:36;;;;;;;13.88;5.32;;;18.30;99.90;;;;;;5049960;28;20036;-62
2021/09/14 01:19:04;;;;;;;5.65;5.15;;;18.30;99.90;;;;;;5051916;28;20033;-62
2021/09/14 01:21:31;;;;;;;6.97;5.38;;;18.30;99.90;;;;;;5051281;28;20120;-66
2021/09/14 01:23:57;;;;;;;7.10;5.70;;;18.20;99.90;;;;;;5051511;28;20380;-62
2021/09/14 01:26:23;;;;;;;9.73;5.85;;;18.10;99.90;;;;;;5079695;28;20044;-64
2021/09/14 01:28:48;;;;;;;7.90;4.93;;;18.10;99.90;;;;;;5091814;28;20095;-60
2021/09/14 01:31:14;;;;;;;6.65;5.72;;;18.10;99.90;;;;;;5091690;28;20545;-61
2021/09/14 01:33:49;;;;;;;8.80;5.50;;;18.10;99.90;;;;;;5089708;28;20039;-61
2021/09/14 01:36:17;;;;;;;6.97;5.80;;;18.00;99.90;;;;;;5092025;28;20058;-61
2021/09/14 01:38:43;;;;;;;8.52;5.47;;;18.10;99.90;;;;;;5091165;28;20028;-60
2021/09/14 01:41:08;;;;;;;6.28;5.22;;;18.00;99.90;;;;;;5091694;28;20039;-62
2021/09/14 01:43:36;;;;;;;7.82;5.40;;;18.00;99.90;;;;;;5090989;28;20086;-62
2021/09/14 01:46:02;;;;;;;6.57;5.88;;;18.00;99.90;;;;;;5090294;28;20032;-62
2021/09/14 01:48:28;;;;;;;6.25;5.32;;;17.90;99.90;;;;;;5089845;28;20055;-62
2021/09/14 01:50:54;;;;;;;9.13;6.00;;;17.90;99.90;;;;;;5090225;28;20024;-61
2021/09/14 01:53:21;;;;;;;7.25;5.78;;;17.90;99.90;;;;;;5091213;28;20456;-60
2021/09/14 01:55:47;;;;;;;6.80;5.63;;;17.70;99.90;;;;;;5090501;28;20473;-61
2021/09/14 01:58:13;;;;;;;9.20;5.82;;;17.80;99.90;;;;;;5091072;28;20099;-61
2021/09/14 02:00:44;;;;;;;8.63;5.85;;;17.80;99.90;;;;;;5091104;28;20034;-61
2021/09/14 03:00:06;;;;;;;10.98;5.78;;;17.40;99.90;;;;;;5081560;28;20130;-61
2021/09/14 03:02:31;;;;;;;9.23;5.57;;;17.40;99.90;;;;;;5069398;28;20144;-61
2021/09/14 03:04:57;;;;;;;6.63;5.68;;;17.40;99.90;;;;;;5070077;28;20072;-62
2021/09/14 03:07:22;;;;;;;7.78;5.30;;;17.40;99.90;;;;;;5069444;28;20078;-62
2021/09/14 03:09:48;;;;;;;8.98;5.93;;;17.40;99.90;;;;;;5068577;28;20055;-61
2021/09/14 03:12:14;;;;;;;7.80;5.43;;;17.40;99.90;;;;;;5070572;28;20051;-62
2021/09/14 03:14:39;;;;;;;8.77;5.85;;;17.50;99.90;;;;;;5069611;28;20366;-61
2021/09/14 03:17:05;;;;;;;6.95;5.47;;;17.40;99.90;;;;;;5070171;28;20067;-62
2021/09/14 03:19:31;;;;;;;8.55;5.47;;;17.40;99.90;;;;;;5070038;28;20135;-61
2021/09/14 03:21:57;;;;;;;11.20;5.90;;;17.40;99.90;;;;;;5069247;28;20028;-61
2021/09/14 03:24:22;;;;;;;13.65;5.90;;;17.40;99.90;;;;;;5070409;28;20048;-61
2021/09/14 03:26:48;;;;;;;7.80;5.88;;;17.40;99.90;;;;;;5068064;28;20129;-61
2021/09/14 03:29:13;;;;;;;7.20;5.45;;;17.40;99.90;;;;;;5071124;28;20450;-61
2021/09/14 03:31:39;;;;;;;10.27;6.18;;;17.40;99.90;;;;;;5071729;28;20036;-61
2021/09/14 03:34:05;;;;;;;7.60;5.72;;;17.30;99.90;;;;;;5073862;28;20067;-61
2021/09/14 03:36:30;;;;;;;13.63;6.53;;;17.30;99.90;;;;;;5073060;28;20052;-64
2021/09/14 03:38:56;;;;;;;7.47;5.78;;;17.40;99.90;;;;;;5073930;28;20024;-61
2021/09/14 03:41:21;;;;;;;6.82;6.20;;;17.40;99.90;;;;;;5073844;28;20029;-61
2021/09/14 03:43:47;;;;;;;7.50;5.70;;;17.40;99.90;;;;;;5073036;28;20111;-61
2021/09/14 03:46:12;;;;;;;5.75;5.00;;;17.40;99.90;;;;;;5072128;28;20040;-61
2021/09/14 03:48:38;;;;;;;6.75;5.68;;;17.30;99.90;;;;;;5071770;28;20366;-62
2021/09/14 03:51:04;;;;;;;7.40;5.78;;;17.40;99.90;;;;;;5073702;28;20032;-61
2021/09/14 03:53:29;;;;;;;5.80;5.20;;;17.30;99.90;;;;;;5072226;28;20025;-61
2021/09/14 03:55:55;;;;;;;7.43;6.10;;;17.30;99.90;;;;;;5071406;28;20062;-61
2021/09/14 03:58:20;;;;;;;8.43;5.55;;;17.20;99.90;;;;;;5071969;28;20477;-61
2021/09/14 04:00:51;;;;;;;6.18;5.47;;;17.30;99.90;;;;;;5071262;28;20107;-61
2021/09/14 04:03:21;;;;;;;6.53;5.20;;;17.20;99.90;;;;;;5073431;28;20114;-61
2021/09/14 04:08:53;;;;;;;5.65;4.65;;;17.30;99.90;;;;;;5034179;28;20045;-61
2021/09/14 04:11:21;;;;;;;10.48;5.75;;;17.20;99.90;;;;;;5071863;28;20438;-62
2021/09/14 04:13:48;;;;;;;6.68;5.22;;;17.20;99.90;;;;;;5070889;28;20052;-61
2021/09/14 04:16:14;;;;;;;11.75;6.65;;;17.20;99.90;;;;;;5071759;28;20082;-60
2021/09/14 04:18:40;;;;;;;8.50;5.85;;;17.20;99.90;;;;;;5070908;28;20393;-61
2021/09/14 04:21:06;;;;;;;7.30;5.32;;;17.20;99.90;;;;;;5072954;28;20137;-61
2021/09/14 04:23:32;;;;;;;9.15;6.32;;;17.20;99.90;;;;;;5072751;28;20096;-61
2021/09/14 04:25:58;;;;;;;7.95;6.22;;;17.20;99.90;;;;;;5070716;28;20386;-61
2021/09/14 04:28:24;;;;;;;6.38;5.43;;;17.20;99.90;;;;;;5071131;28;20033;-61
2021/09/14 04:30:49;;;;;;;10.30;5.82;;;17.20;99.90;;;;;;5029302;28;20041;-62
2021/09/14 04:33:15;;;;;;;6.10;5.47;;;17.20;99.90;;;;;;5030149;28;20124;-62
2021/09/14 04:35:40;;;;;;;13.38;5.53;;;17.20;99.90;;;;;;5013131;28;20465;-61
2021/09/14 04:38:06;;;;;;;7.13;5.90;;;17.20;99.90;;;;;;5030609;28;20491;-61
2021/09/14 04:40:32;;;;;;;5.60;5.03;;;17.20;99.90;;;;;;5012560;28;20037;-62
2021/09/14 04:42:57;;;;;;;7.35;5.35;;;17.20;99.90;;;;;;5029315;28;20046;-61
2021/09/14 04:45:23;;;;;;;5.38;4.88;;;17.20;99.90;;;;;;5030174;28;20034;-62
2021/09/14 04:47:49;;;;;;;7.70;5.40;;;17.20;99.90;;;;;;5029338;28;20040;-63
2021/09/14 04:50:14;;;;;;;6.18;5.57;;;17.10;99.90;;;;;;5013355;28;20044;-62
2021/09/14 04:52:40;;;;;;;6.95;5.22;;;17.10;99.90;;;;;;5012429;28;20071;-62
2021/09/14 04:55:07;;;;;;;5.90;5.15;;;17.10;99.90;;;;;;5013261;28;20436;-62
2021/09/14 04:57:33;;;;;;;7.30;5.93;;;17.10;99.90;;;;;;5029897;28;20046;-62
2021/09/14 04:59:59;;;;;;;8.68;5.38;;;17.10;99.90;;;;;;5029129;28;20103;-61
2021/09/14 05:02:24;;;;;;;6.75;5.30;;;17.20;99.90;;;;;;5038977;28;20131;-62
2021/09/14 05:04:50;;;;;;;9.38;5.57;;;17.10;99.90;;;;;;5069956;28;20056;-62
2021/09/14 05:07:16;;;;;;;6.28;5.45;;;17.10;99.90;;;;;;5070478;28;20043;-62
2021/09/14 05:09:41;;;;;;;7.85;5.78;;;17.10;99.90;;;;;;5070852;28;20462;-63
2021/09/14 05:12:07;;;;;;;9.52;6.00;;;17.20;99.90;;;;;;5071442;28;20470;-62
2021/09/14 05:14:33;;;;;;;8.57;5.38;;;17.20;99.90;;;;;;5071696;28;20032;-61
2021/09/14 05:17:00;;;;;;;8.02;5.25;;;17.20;99.90;;;;;;5071099;28;20036;-63
2021/09/14 05:19:33;;;;;;;10.77;5.53;;;17.20;99.90;;;;;;5071199;28;20052;-61
2021/09/14 05:22:01;;;;;;;8.60;5.65;;;17.20;99.90;;;;;;5069169;28;20403;-61
2021/09/14 05:24:27;;;;;;;5.88;4.97;;;17.20;99.90;;;;;;5071494;28;20043;-62
2021/09/14 05:26:54;;;;;;;6.13;5.53;;;17.30;99.90;;;;;;5069526;28;20427;-62
2021/09/14 05:29:20;;;;;;;8.50;5.78;;;17.30;99.90;;;;;;5071370;28;20035;-62
2021/09/14 05:31:46;;;;;;;6.35;5.50;;;17.30;99.90;;;;;;5070337;28;20033;-61
2021/09/14 05:34:14;;;;;;;9.50;5.57;;;17.40;99.90;;;;;;5069958;28;20055;-62
2021/09/14 05:36:42;;;;;;;6.65;5.13;;;17.40;99.90;;;;;;5069433;28;20094;-63
2021/09/14 05:39:08;;;;;;;7.43;5.03;;;17.40;99.90;;;;;;5071286;28;20025;-65
2021/09/14 05:41:34;;;;;;;10.07;6.88;;;17.40;99.90;;;;;;5069565;28;20025;-63
2021/09/14 05:43:59;;;;;;;8.35;6.10;;;17.40;99.90;;;;;;5070037;28;20438;-61
2021/09/14 05:46:25;;;;;;;12.25;6.80;;;17.40;99.90;;;;;;5069093;28;20033;-61
2021/09/14 05:48:52;;;;;;;7.78;5.97;;;17.50;99.90;;;;;;5068914;28;20025;-62
2021/09/14 05:51:19;;;;;;;10.98;6.25;;;17.50;99.90;;;;;;5068937;28;20058;-62
2021/09/14 05:53:45;;;;;;;9.32;5.32;;;17.50;99.90;;;;;;5069983;28;20051;-62
2021/09/14 05:56:10;;;;;;;12.95;6.15;;;17.50;99.90;;;;;;5070825;28;20040;-62
2021/09/14 05:58:36;;;;;;;8.90;5.88;;;17.50;99.90;;;;;;5052620;28;20405;-62
2021/09/14 06:01:02;;;;;;;9.68;6.47;;;17.50;99.90;;;;;;5068332;28;20500;-63
2021/09/14 06:03:29;;;;;;;7.13;5.95;;;17.60;99.90;;;;;;5070678;28;20167;-62
2021/09/14 06:05:55;;;;;;;10.93;6.10;;;17.50;99.90;;;;;;5068473;28;20033;-62
2021/09/14 06:08:21;;;;;;;9.65;6.30;;;17.60;99.90;;;;;;5070415;28;20041;-63
2021/09/14 06:10:47;;;;;;;8.25;5.82;;;17.70;99.90;;;;;;5069891;28;20032;-63
2021/09/14 06:13:13;;;;;;;8.02;5.72;;;17.70;99.90;;;;;;5068672;28;20344;-62
2021/09/14 06:15:40;;;;;;;11.50;5.22;;;17.80;99.90;;;;;;5070473;28;20090;-74
2021/09/14 06:18:06;;;;;;;7.93;5.45;;;17.90;99.90;;;;;;5068726;28;20040;-62
2021/09/14 06:20:32;;;;;;;8.02;5.72;;;17.90;99.90;;;;;;5069117;28;20029;-62
2021/09/14 06:22:58;;;;;;;9.65;4.72;;;18.00;99.90;;;;;;5069802;28;20055;-63
2021/09/14 06:25:23;;;;;;;7.57;5.78;;;18.00;99.90;;;;;;5068671;28;20427;-63
2021/09/14 06:27:49;;;;;;;8.27;6.03;;;18.10;99.90;;;;;;5069440;28;20040;-62
2021/09/14 06:30:15;;;;;;;8.82;5.43;;;18.10;99.90;;;;;;5068766;28;20028;-62
2021/09/14 06:32:40;;;;;;;6.35;5.65;;;18.20;99.90;;;;;;5068416;28;20037;-71
2021/09/14 06:35:06;;;;;;;5.60;4.78;;;18.40;99.90;;;;;;5069166;28;20116;-62
2021/09/14 06:37:32;;;;;;;5.57;4.88;;;18.50;99.90;;;;;;5068792;28;20086;-63
2021/09/14 06:39:58;;;;;;;11.40;6.47;;;18.60;99.90;;;;;;5068359;28;20024;-62
2021/09/14 06:42:25;;;;;;;5.47;4.30;;;18.80;99.90;;;;;;5068636;28;20450;-63
2021/09/14 06:44:51;;;;;;;3.75;2.85;;;19.30;99.90;;;;;;5067915;28;20445;-50
2021/09/14 06:47:17;;;;;;;3.60;2.47;;;19.80;99.90;;;;;;5068553;28;20040;-53
2021/09/14 06:49:43;;;;;;;4.65;3.53;;;20.60;99.90;;;;;;5067712;28;20025;-52
2021/09/14 06:52:08;;;;;;;8.02;3.75;;;21.10;99.90;;;;;;5069606;28;20059;-51
2021/09/14 06:54:35;;;;;;;7.65;2.95;;;21.50;99.90;;;;;;5069921;28;20078;-52
2021/09/14 06:57:01;;;;;;;6.07;3.08;;;21.80;99.90;;;;;;5069152;28;20192;-53
2021/09/14 06:59:26;;;;;;;11.38;3.45;;;22.00;99.90;;;;;;5069937;28;20047;-53
2021/09/14 07:01:52;;;;;;;3.20;2.75;;;22.10;99.90;;;;;;5069609;28;20058;-53
2021/09/14 07:04:18;;;;;;;4.47;3.05;;;22.30;99.90;;;;;;5069770;28;20426;-53
2021/09/14 07:06:46;;;;;;;4.18;3.03;;;22.40;99.90;;;;;;5071577;28;20032;-52
2021/09/14 07:09:12;;;;;;;4.22;3.42;;;22.50;99.90;;;;;;5073598;28;20024;-52
2021/09/14 07:11:37;;;;;;;6.05;3.10;;;22.60;99.90;;;;;;5073131;28;20024;-52
2021/09/14 07:14:03;;;;;;;5.82;3.85;;;22.60;99.80;;;;;;5071512;28;20032;-52
2021/09/14 07:16:29;;;;;;;5.45;3.85;;;22.80;99.80;;;;;;5072525;28;20033;-52
2021/09/14 07:18:54;;;;;;;15.32;4.63;;;22.80;99.40;;;;;;5072540;28;20029;-52
2021/09/14 07:21:20;;;;;;;6.15;2.85;;;22.90;99.90;;;;;;5073315;28;20087;-51
2021/09/14 07:23:46;;;;;;;3.38;2.65;;;23.10;99.80;;;;;;5071438;28;20021;-52
2021/09/14 07:26:11;;;;;;;2.88;2.58;;;23.20;99.40;;;;;;5072984;28;20048;-53
2021/09/14 07:28:37;;;;;;;5.82;2.97;;;23.30;99.00;;;;;;5073413;28;20085;-52
2021/09/14 07:31:03;;;;;;;4.03;2.90;;;23.30;99.10;;;;;;5072948;28;20320;-50
2021/09/14 07:33:29;;;;;;;3.58;3.03;;;23.40;99.40;;;;;;5071808;28;20020;-51
2021/09/14 07:35:54;;;;;;;5.85;4.00;;;23.50;98.70;;;;;;5072554;28;20025;-51
2021/09/14 07:38:20;;;;;;;5.93;3.40;;;23.70;98.80;;;;;;5073092;28;20082;-50
2021/09/14 07:40:46;;;;;;;8.32;3.33;;;23.60;98.10;;;;;;5071354;28;20028;-53
2021/09/14 07:43:11;;;;;;;8.20;3.53;;;23.50;99.90;;;;;;5055093;28;20028;-53
2021/09/14 07:45:37;;;;;;;6.10;3.60;;;23.70;99.90;;;;;;5073235;28;20366;-53
2021/09/14 07:48:03;;;;;;;5.22;3.47;;;23.70;99.90;;;;;;5072748;28;20432;-53
2021/09/14 07:50:29;;;;;;;10.48;3.15;;;23.60;99.70;;;;;;5071628;28;20059;-52
2021/09/14 07:52:54;;;;;;;5.18;3.25;;;23.50;99.90;;;;;;5072217;28;20035;-53
2021/09/14 07:55:21;;;;;;;6.75;3.13;;;23.50;99.90;;;;;;5071575;28;20422;-55
2021/09/14 07:57:46;;;;;;;3.13;2.80;;;23.60;99.90;;;;;;5070828;28;20081;-55
2021/09/14 08:00:12;;;;;;;4.03;2.78;;;23.70;99.90;;;;;;5071196;28;20028;-54
2021/09/14 08:02:38;;;;;;;6.25;3.10;;;23.80;99.90;;;;;;5072754;28;20120;-54
2021/09/14 08:05:05;;;;;;;6.50;2.90;;;24.00;99.80;;;;;;5070562;28;20020;-52
2021/09/14 08:07:31;;;;;;;6.97;3.95;;;23.80;99.00;;;;;;5072333;28;20059;-56
2021/09/14 08:09:57;;;;;;;5.30;2.88;;;23.70;97.80;;;;;;5070684;28;20407;-56
2021/09/14 08:12:22;;;;;;;3.58;2.75;;;23.70;98.60;;;;;;5071402;28;20043;-56
2021/09/14 08:14:48;;;;;;;4.03;2.72;;;23.70;97.70;;;;;;5071724;28;20390;-58
2021/09/14 08:17:15;;;;;;;5.50;2.88;;;23.70;97.80;;;;;;5071925;28;20029;-56
2021/09/14 08:19:42;;;;;;;5.47;2.90;;;23.60;97.70;;;;;;5071047;28;20039;-56
2021/09/14 08:22:11;;;;;;;10.68;2.28;;;23.70;98.30;;;;;;5071687;28;20199;-56
2021/09/14 08:24:37;;;;;;;7.88;3.13;;;23.90;98.40;;;;;;5071778;28;20242;-56
2021/09/14 08:27:04;;;;;;;4.00;3.05;;;23.70;97.70;;;;;;5071583;28;20454;-47
2021/09/14 08:29:30;;;;;;;8.70;3.08;;;23.60;97.80;;;;;;5070666;28;20085;-47
2021/09/14 08:31:56;;;;;;;10.73;3.30;;;23.60;97.90;;;;;;5071497;28;20454;-49
2021/09/14 08:34:22;;;;;;;6.40;2.80;;;23.70;98.00;;;;;;5069781;28;20139;-50
2021/09/14 08:36:49;;;;;;;6.72;3.20;;;23.80;98.10;;;;;;5071492;28;20410;-57
2021/09/14 08:39:15;;;;;;;5.50;2.50;;;23.90;97.10;;;;;;5070667;28;20029;-49
2021/09/14 08:41:43;;;;;;;8.55;4.10;;;23.90;97.90;;;;;;5072107;28;20116;-52
2021/09/14 08:44:09;;;;;;;5.53;3.47;;;24.00;97.50;;;;;;5071460;28;20104;-50
2021/09/14 08:46:35;;;;;;;4.20;3.80;;;24.00;97.20;;;;;;5071297;28;20059;-49
2021/09/14 08:49:01;;;;;;;3.67;2.83;;;24.10;97.00;;;;;;5071362;28;20032;-48
2021/09/14 08:51:27;;;;;;;8.30;3.17;;;24.00;97.70;;;;;;5070296;28;20024;-49
2021/09/14 08:53:53;;;;;;;4.35;2.80;;;24.20;97.60;;;;;;5071191;28;20077;-48
2021/09/14 08:56:18;;;;;;;6.93;3.08;;;24.20;96.80;;;;;;5071854;28;20040;-47
2021/09/14 08:59:01;;;;;;;7.55;3.78;;;24.20;97.00;;;;;;5053325;28;20416;-47
2021/09/14 09:01:27;;;;;;;15.63;3.78;;;24.10;96.30;;;;;;5070131;28;20025;-47
2021/09/14 09:04:04;;;;;;;4.55;3.17;;;24.10;97.10;;;;;;5053236;28;20461;-47
2021/09/14 09:06:31;;;;;;;6.63;3.35;;;24.20;97.20;;;;;;5073864;28;20470;-47
2021/09/14 09:09:12;;;;;;;6.13;4.00;;;24.30;96.70;;;;;;5086017;28;20046;-48
2021/09/14 09:11:40;;;;;;;12.95;4.28;;;24.40;96.40;;;;;;5091720;28;20023;-48
2021/09/14 09:14:06;;;;;;;4.18;3.22;;;24.30;96.40;;;;;;5090435;28;20530;-48
2021/09/14 09:16:32;;;;;;;7.05;3.47;;;24.20;96.70;;;;;;5091785;28;20024;-47
2021/09/14 09:18:59;;;;;;;6.75;3.53;;;24.40;96.70;;;;;;5089626;28;20166;-46
2021/09/14 09:21:36;;;;;;;8.18;3.67;;;24.60;96.40;;;;;;5091320;28;20417;-47
2021/09/14 09:24:08;;;;;;;4.05;3.30;;;24.60;96.30;;;;;;5089572;28;20113;-47
2021/09/14 09:26:39;;;;;;;3.97;3.33;;;24.50;96.30;;;;;;5090882;28;20040;-47
2021/09/14 09:29:05;;;;;;;;;;;24.70;96.00;;;;;;5090951;28;20039;-46
2021/09/14 09:31:36;;;;;;;10.52;4.07;;;24.30;96.40;;;;;;5089722;28;19912;-47
2021/09/14 09:34:09;;;;;;;4.50;2.95;;;24.40;96.40;;;;;;5090608;28;20036;-47
2021/09/14 09:36:39;;;;;;;7.43;3.97;;;24.40;96.50;;;;;;5091085;28;20036;-47
2021/09/14 09:39:07;;;;;;;9.50;3.65;;;24.30;96.50;;;;;;5090771;28;20472;-46
2021/09/14 09:41:35;;;;;;;5.65;4.22;;;24.50;96.40;;;;;;5091083;28;20062;-46
2021/09/14 09:44:12;;;;;;;8.90;3.63;;;24.30;96.40;;;;;;5090375;28;20065;-47
2021/09/14 09:46:38;;;;;;;13.27;4.75;;;24.30;96.60;;;;;;5090654;28;20043;-51
2021/09/14 09:49:06;;;;;;;14.35;5.22;;;24.70;99.70;;;;;;5090328;28;20028;-51
2021/09/14 09:51:33;;;;;;;4.93;3.30;;;24.80;96.50;;;;;;5090735;28;20044;-51
2021/09/14 09:53:58;;;;;;;5.65;3.72;;;25.10;99.90;;;;;;5090536;28;20047;-52
2021/09/14 09:56:24;;;;;;;13.75;3.58;;;25.40;97.30;;;;;;5090482;28;20024;-50
2021/09/14 09:58:51;;;;;;;5.88;3.78;;;25.70;95.40;;;;;;5090904;28;20429;-64
2021/09/14 10:01:20;;;;;;;7.10;4.03;;;26.00;95.40;;;;;;5089809;28;20043;-64
2021/09/14 10:03:54;;;;;;;7.88;3.90;;;26.10;94.40;;;;;;5088693;28;20033;-64
2021/09/14 10:06:21;;;;;;;9.07;4.10;;;26.20;94.80;;;;;;5088925;28;20025;-64
2021/09/14 10:08:53;;;;;;;8.43;4.32;;;26.30;94.10;;;;;;5089930;28;20047;-65
2021/09/14 10:11:29;;;;;;;9.75;3.72;;;26.60;93.90;;;;;;5088505;28;20031;-64
2021/09/14 10:14:04;;;;;;;10.88;4.20;;;26.40;93.80;;;;;;5087653;28;20025;-63
2021/09/14 10:16:35;;;;;;;5.47;3.53;;;25.90;94.40;;;;;;5086280;28;20050;-63
2021/09/14 10:19:12;;;;;;;;;;;26.10;94.60;;;;;;5087846;28;20024;-65
2021/09/14 10:21:37;;;;;;;5.63;3.80;;;26.10;94.60;;;;;;5090531;28;20357;-63
2021/09/14 10:24:03;;;;;;;9.23;3.60;;;26.60;94.30;;;;;;5088372;28;20035;-66
2021/09/14 10:26:35;;;;;;;16.48;4.30;;;26.90;93.70;;;;;;5089640;28;20121;-65
2021/09/14 10:29:16;;;;;;;6.80;3.67;;;27.10;93.90;;;;;;5088366;28;20036;-64
2021/09/14 10:31:42;;;;;;;16.10;3.75;;;27.40;93.60;;;;;;5088845;28;20119;-64
2021/09/14 10:34:13;;;;;;;5.95;3.40;;;27.50;93.00;;;;;;5087661;28;20047;-64
2021/09/14 10:36:42;;;;;;;6.07;3.60;;;27.30;92.90;;;;;;5090432;28;20053;-64
2021/09/14 10:39:24;;;;;;;8.10;4.03;;;27.10;92.90;;;;;;5092395;28;20047;-64
2021/09/14 10:41:54;;;;;;;11.63;3.97;;;27.00;93.00;;;;;;5092756;28;20070;-64
2021/09/14 10:44:31;;;;;;;6.38;4.03;;;27.00;92.80;;;;;;5092459;28;20507;-65
2021/09/14 10:47:34;;;;;;;5.05;3.72;;;27.10;93.20;;;;;;5092117;28;20036;-65
2021/09/14 10:50:00;;;;;;;5.65;3.55;;;27.70;93.20;;;;;;5080802;28;20036;-64
2021/09/14 10:52:37;;;;;;;8.32;3.13;;;27.90;92.50;;;;;;5094778;28;20099;-64
2021/09/14 10:55:18;;;;;;;3.95;3.55;;;27.80;92.30;;;;;;5092065;28;20170;-64
2021/09/14 10:57:49;;;;;;;7.38;3.65;;;28.10;92.30;;;;;;5092741;28;20373;-65
2021/09/14 11:00:29;;;;;;;4.38;3.05;;;28.40;92.30;;;;;;5093336;28;20181;-64
2021/09/14 11:03:00;;;;;;;4.07;3.28;;;29.00;91.70;;;;;;5092414;28;20040;-64
2021/09/14 11:05:31;;;;;;;4.75;3.25;;;29.10;91.20;;;;;;5094022;28;20501;-65
2021/09/14 11:08:02;;;;;;;7.20;3.60;;;29.20;91.30;;;;;;5093620;28;20036;-69
2021/09/14 11:10:35;;;;;;;5.85;2.70;;;29.20;90.90;;;;;;5094367;28;20063;-65
2021/09/14 11:13:02;;;;;;;6.88;3.30;;;29.40;90.60;;;;;;5091867;28;20085;-65
2021/09/14 11:15:28;;;;;;;3.97;3.28;;;29.00;90.50;;;;;;5094156;28;20028;-65
2021/09/14 11:17:53;;;;;;;5.50;3.30;;;28.60;90.70;;;;;;5092460;28;20032;-65
2021/09/14 11:20:21;;;;;;;5.50;3.65;;;28.60;90.70;;;;;;5091374;28;20460;-66
2021/09/14 11:22:49;;;;;;;6.78;2.90;;;28.80;90.90;;;;;;5092233;28;20473;-64
2021/09/14 11:25:17;;;;;;;6.53;3.42;;;29.10;90.80;;;;;;5092360;28;20401;-65
2021/09/14 11:28:09;;;;;;;3.50;2.75;;;28.90;90.40;;;;;;5093461;28;20032;-64
2021/09/14 11:30:35;;;;;;;4.80;3.25;;;28.90;90.50;;;;;;5092100;28;20028;-63
2021/09/14 11:33:02;;;;;;;5.30;2.85;;;28.80;90.50;;;;;;5091020;28;20058;-64
2021/09/14 11:35:29;;;;;;;7.93;2.90;;;28.80;90.40;;;;;;5093197;28;20504;-63
2021/09/14 11:38:03;;;;;;;4.60;2.58;;;28.50;90.50;;;;;;5093281;28;20123;-63
2021/09/14 11:40:32;;;;;;;6.13;2.83;;;28.50;90.80;;;;;;5092356;28;20416;-64
2021/09/14 11:43:00;;;;;;;15.70;3.63;;;28.70;91.00;;;;;;5093629;28;20168;-64
2021/09/14 11:45:32;;;;;;;4.22;2.78;;;28.70;90.80;;;;;;5093379;28;20073;-65
2021/09/14 11:47:59;;;;;;;3.67;2.97;;;28.40;91.00;;;;;;5093600;28;20036;-64
2021/09/14 11:50:33;;;;;;;3.95;3.50;;;28.70;91.00;;;;;;5091241;28;20027;-63
2021/09/14 11:53:02;;;;;;;2.85;2.65;;;28.30;91.00;;;;;;5092969;28;20406;-68
2021/09/14 11:55:28;;;;;;;5.53;2.80;;;28.70;91.00;;;;;;5093252;28;20030;-64
2021/09/14 11:57:58;;;;;;;6.55;3.15;;;28.80;90.70;;;;;;5091748;28;20028;-64
2021/09/14 12:00:44;;;;;;;4.93;3.53;;;28.90;90.50;;;;;;5092876;28;20050;-65
2021/09/14 12:03:10;;;;;;;4.85;2.88;;;29.10;90.60;;;;;;5091339;28;20043;-64
2021/09/14 12:05:35;;;;;;;4.70;2.33;;;29.20;90.60;;;;;;5092822;28;20031;-64
2021/09/14 12:08:08;;;;;;;3.13;2.58;;;29.30;90.10;;;;;;5091172;28;20036;-63
2021/09/14 12:10:45;;;;;;;5.80;2.58;;;29.30;90.00;;;;;;5091955;28;20104;-64
2021/09/14 12:13:16;;;;;;;4.97;2.97;;;29.50;89.80;;;;;;5092246;28;20407;-64
2021/09/14 12:15:41;;;;;;;5.45;2.95;;;29.60;90.30;;;;;;5091418;28;20028;-63
2021/09/14 12:18:07;;;;;;;6.05;2.60;;;30.10;89.70;;;;;;5092340;28;20036;-63
2021/09/14 12:20:33;;;;;;;4.70;3.00;;;30.20;88.80;;;;;;5091254;28;20123;-64
2021/09/14 12:23:00;;;;;;;5.00;2.67;;;30.10;89.10;;;;;;5091226;28;20044;-64
2021/09/14 12:25:26;;;;;;;5.70;2.72;;;30.20;88.70;;;;;;5090063;28;20477;-65
2021/09/14 12:27:51;;;;;;;4.25;2.47;;;29.70;88.20;;;;;;5091179;28;20039;-64
2021/09/14 12:30:17;;;;;;;4.90;2.55;;;29.60;89.30;;;;;;5090559;28;20440;-64
2021/09/14 12:32:43;;;;;;;3.55;2.90;;;29.70;89.10;;;;;;5090726;28;20458;-64
2021/09/14 12:35:09;;;;;;;4.50;2.70;;;29.50;89.30;;;;;;5091760;28;20032;-64
2021/09/14 12:37:35;;;;;;;4.65;2.22;;;29.70;89.40;;;;;;5092048;28;20111;-64
2021/09/14 12:40:01;;;;;;;5.65;2.45;;;30.00;88.20;;;;;;5092374;28;20024;-65
2021/09/14 12:42:27;;;;;;;4.82;2.38;;;30.10;88.60;;;;;;5091825;28;20067;-64
2021/09/14 12:44:53;;;;;;;2.90;2.10;;;30.20;88.70;;;;;;5090283;28;20410;-63
2021/09/14 12:47:18;;;;;;;4.57;2.47;;;30.20;88.10;;;;;;5089833;28;20082;-64
2021/09/14 12:49:44;;;;;;;7.75;2.60;;;30.50;87.40;;;;;;5090910;28;20062;-64
2021/09/14 12:52:09;;;;;;;3.70;2.38;;;30.40;87.00;;;;;;5090091;28;20111;-64
2021/09/14 12:54:35;;;;;;;5.20;2.03;;;30.30;86.90;;;;;;5091741;28;20073;-64
2021/09/14 12:57:01;;;;;;;4.60;2.10;;;30.60;86.80;;;;;;5090081;28;20067;-65
2021/09/14 12:59:27;;;;;;;5.65;2.28;;;31.10;87.00;;;;;;5089601;28;20081;-64
2021/09/14 13:01:53;;;;;;;3.90;2.58;;;31.40;85.50;;;;;;5089317;28;20040;-64
2021/09/14 13:04:19;;;;;;;12.45;2.90;;;31.30;85.40;;;;;;5091236;28;20036;-63
2021/09/14 13:06:45;;;;;;;4.45;2.40;;;31.20;84.60;;;;;;5090236;28;20457;-63
2021/09/14 13:09:10;;;;;;;19.60;2.45;;;30.90;84.20;;;;;;5090731;28;20130;-64
2021/09/14 13:11:36;;;;;;;3.25;1.90;;;30.50;84.20;;;;;;5091478;28;20417;-63
2021/09/14 13:16:46;;;;;;;10.73;2.80;;;30.00;85.20;;;;;;5091262;28;20058;-64
2021/09/14 13:19:12;;;;;;;5.72;2.13;;;29.70;85.40;;;;;;5090351;28;20020;-64
2021/09/14 13:21:37;;;;;;;4.90;2.38;;;29.60;86.40;;;;;;5090016;28;20028;-63
2021/09/14 13:24:10;;;;;;;2.40;2.20;;;29.50;85.60;;;;;;5107264;27;20958;-63
2021/09/14 13:26:35;;;;;;;2.67;1.85;;;29.20;85.90;;;;;;5107791;28;20036;-62
2021/09/14 13:29:01;;;;;;;4.45;2.13;;;29.30;85.70;;;;;;5106676;28;20349;-63
2021/09/14 13:31:26;;;;;;;2.47;2.28;;;28.90;86.40;;;;;;5105913;28;20531;-64
2021/09/14 13:33:53;;;;;;;7.68;2.70;;;28.60;86.70;;;;;;5106548;28;20028;-63
2021/09/14 13:36:19;;;;;;;3.92;2.25;;;28.20;87.90;;;;;;5107384;28;20097;-64
2021/09/14 13:38:45;;;;;;;6.07;2.38;;;28.10;88.20;;;;;;5108117;28;20024;-63
2021/09/14 13:41:16;;;;;;;6.68;2.53;;;28.20;88.50;;;;;;5105885;28;20449;-64
2021/09/14 13:48:37;;;;;;;4.18;2.28;;;27.60;88.40;;;;;;5107701;28;20020;-63
2021/09/14 13:51:03;;;;;;;3.33;2.33;;;27.40;89.10;;;;;;5107538;28;20050;-64
2021/09/14 13:53:29;;;;;;;7.63;2.35;;;27.30;90.00;;;;;;5106816;28;20144;-63